createdAt,value
2018-06-16T00:00:56.206Z,11.40
2018-06-16T00:03:25.800Z,11.60
2018-06-16T00:05:56.024Z,12.60
2018-06-16T00:08:31.158Z,12.05
2018-06-16T00:11:23.077Z,13.03
2018-06-16T00:17:04.616Z,12.70
2018-06-16T00:19:33.897Z,13.00
2018-06-16T00:22:11.631Z,12.83
2018-06-16T00:24:40.991Z,12.40
2018-06-16T00:27:10.388Z,11.93
2018-06-16T00:33:12.405Z,11.68
2018-06-16T00:35:43.569Z,11.93
2018-06-16T00:38:17.393Z,11.50
2018-06-16T00:41:21.140Z,12.27
2018-06-16T00:43:50.433Z,12.73
2018-06-16T00:46:22.332Z,11.70
2018-06-16T00:48:54.124Z,13.60
2018-06-16T00:51:25.249Z,13.40
2018-06-16T00:53:54.636Z,13.70
2018-06-16T00:56:23.990Z,11.93
2018-06-16T00:58:53.268Z,12.03
2018-06-16T01:01:22.580Z,12.10
2018-06-16T01:03:51.847Z,12.13
2018-06-16T01:06:21.266Z,15.47
2018-06-16T01:08:50.696Z,12.23
2018-06-16T01:11:20.065Z,13.00
2018-06-16T01:13:49.335Z,12.17
2018-06-16T01:16:18.682Z,13.73
2018-06-16T01:18:47.938Z,13.13
2018-06-16T01:21:17.169Z,12.73
2018-06-16T01:23:46.435Z,13.70
2018-06-16T01:26:15.764Z,13.67
2018-06-16T01:28:45.203Z,13.37
2018-06-16T01:31:14.585Z,19.10
2018-06-16T01:33:43.883Z,15.77
2018-06-16T01:36:13.142Z,14.27
2018-06-16T01:38:42.420Z,13.80
2018-06-16T01:41:11.846Z,14.10
2018-06-16T01:43:41.220Z,14.40
2018-06-16T01:46:10.525Z,13.63
2018-06-16T01:48:44.981Z,13.67
2018-06-16T01:51:14.601Z,15.30
2018-06-16T01:53:43.560Z,14.37
2018-06-16T01:56:12.798Z,15.53
2018-06-16T01:58:41.758Z,15.00
2018-06-16T02:01:10.938Z,14.53
2018-06-16T02:03:40.295Z,15.10
2018-06-16T02:06:09.504Z,14.73
2018-06-16T02:08:38.845Z,14.90
2018-06-16T02:11:08.017Z,13.90
2018-06-16T02:13:37.499Z,14.83
2018-06-16T02:16:06.825Z,14.80
2018-06-16T02:18:36.040Z,14.73
2018-06-16T02:21:05.519Z,14.97
2018-06-16T02:23:34.835Z,15.73
2018-06-16T02:26:04.080Z,14.80
2018-06-16T02:28:33.315Z,15.80
2018-06-16T02:31:02.689Z,14.43
2018-06-16T02:33:32.014Z,14.87
2018-06-16T02:36:01.261Z,15.20
2018-06-16T02:38:30.535Z,14.97
2018-06-16T02:40:59.988Z,15.10
2018-06-16T02:43:29.284Z,14.43
2018-06-16T02:45:58.606Z,14.70
2018-06-16T02:48:27.904Z,13.90
2018-06-16T02:50:57.181Z,14.43
2018-06-16T02:53:26.504Z,14.70
2018-06-16T02:55:55.800Z,14.13
2018-06-16T02:58:25.106Z,15.03
2018-06-16T03:00:54.372Z,14.23
2018-06-16T03:03:23.697Z,13.73
2018-06-16T03:05:52.881Z,14.60
2018-06-16T03:08:22.402Z,14.87
2018-06-16T03:10:52.352Z,14.03
2018-06-16T03:13:21.747Z,15.13
2018-06-16T03:15:51.011Z,14.90
2018-06-16T03:18:20.322Z,15.63
2018-06-16T03:20:49.577Z,15.10
2018-06-16T03:23:18.825Z,14.13
2018-06-16T03:25:48.070Z,15.23
2018-06-16T03:28:17.271Z,14.70
2018-06-16T03:30:46.519Z,15.07
2018-06-16T03:33:15.796Z,14.50
2018-06-16T03:35:45.117Z,14.90
2018-06-16T03:38:14.376Z,13.83
2018-06-16T03:40:43.649Z,14.90
2018-06-16T03:43:12.864Z,14.80
2018-06-16T03:45:42.127Z,15.37
2018-06-16T03:48:11.409Z,14.33
2018-06-16T03:50:40.688Z,14.60
2018-06-16T03:53:09.943Z,14.07
2018-06-16T03:55:39.534Z,13.83
2018-06-16T03:58:08.752Z,14.50
2018-06-16T04:00:38.210Z,13.80
2018-06-16T04:03:07.634Z,15.43
2018-06-16T04:05:36.869Z,13.87
2018-06-16T04:08:06.162Z,14.20
2018-06-16T04:10:35.352Z,16.20
2018-06-16T04:13:04.624Z,14.20
2018-06-16T04:15:33.878Z,13.80
2018-06-16T04:18:03.147Z,14.90
2018-06-16T04:20:32.384Z,15.10
2018-06-16T04:23:01.647Z,14.50
2018-06-16T04:25:30.948Z,13.70
2018-06-16T04:28:00.280Z,14.10
2018-06-16T04:30:29.493Z,14.53
2018-06-16T04:32:58.908Z,15.33
2018-06-16T04:35:28.164Z,16.07
2018-06-16T04:37:57.597Z,13.10
2018-06-16T04:40:26.895Z,15.87
2018-06-16T04:42:56.212Z,15.20
2018-06-16T04:45:26.558Z,15.27
2018-06-16T04:47:55.881Z,14.83
2018-06-16T04:50:25.172Z,14.63
2018-06-16T04:52:54.456Z,14.77
2018-06-16T04:55:23.692Z,15.50
2018-06-16T04:57:53.090Z,16.67
2018-06-16T05:00:22.549Z,14.43
2018-06-16T05:02:51.893Z,14.80
2018-06-16T05:05:21.140Z,14.10
2018-06-16T05:07:50.445Z,15.07
2018-06-16T05:10:19.695Z,15.63
2018-06-16T05:12:48.958Z,15.93
2018-06-16T05:15:18.205Z,14.77
2018-06-16T05:17:47.521Z,14.23
2018-06-16T05:20:16.872Z,14.60
2018-06-16T05:22:46.344Z,15.10
2018-06-16T05:25:15.542Z,14.60
2018-06-16T05:27:44.793Z,15.03
2018-06-16T05:30:14.128Z,14.57
2018-06-16T05:32:43.729Z,15.47
2018-06-16T05:35:13.035Z,14.90
2018-06-16T05:37:42.528Z,14.90
2018-06-16T05:40:11.811Z,15.40
2018-06-16T05:42:41.204Z,15.47
2018-06-16T05:45:10.454Z,16.37
2018-06-16T05:47:39.691Z,16.00
2018-06-16T05:50:09.013Z,15.07
2018-06-16T05:52:38.267Z,15.57
2018-06-16T05:55:07.567Z,14.70
2018-06-16T05:57:36.875Z,14.70
2018-06-16T06:00:06.501Z,15.17
2018-06-16T06:02:35.926Z,15.70
2018-06-16T06:05:05.200Z,15.17
2018-06-16T06:07:34.439Z,15.20
2018-06-16T06:10:04.113Z,14.70
2018-06-16T06:12:34.518Z,15.57
2018-06-16T06:15:04.037Z,15.83
2018-06-16T06:17:34.071Z,14.03
2018-06-16T06:20:03.627Z,14.50
2018-06-16T06:22:32.945Z,14.77
2018-06-16T06:25:02.234Z,14.57
2018-06-16T06:27:31.761Z,14.17
2018-06-16T06:30:01.047Z,14.60
2018-06-16T06:32:30.454Z,14.67
2018-06-16T06:34:59.711Z,14.47
2018-06-16T06:37:29.884Z,14.67
2018-06-16T06:39:59.947Z,14.33
2018-06-16T06:42:30.692Z,14.37
2018-06-16T06:45:00.024Z,13.40
2018-06-16T06:47:29.586Z,13.33
2018-06-16T06:49:59.042Z,13.87
2018-06-16T06:52:28.333Z,15.27
2018-06-16T06:54:58.098Z,13.60
2018-06-16T06:57:28.240Z,13.20
2018-06-16T06:59:59.646Z,14.57
2018-06-16T07:02:29.622Z,14.63
2018-06-16T07:05:00.064Z,13.30
2018-06-16T07:07:29.125Z,13.20
2018-06-16T07:09:58.296Z,15.20
2018-06-16T07:12:27.738Z,13.53
2018-06-16T07:14:58.391Z,13.57
2018-06-16T07:17:27.957Z,13.20
2018-06-16T07:19:57.786Z,13.60
2018-06-16T07:22:27.169Z,14.00
2018-06-16T07:24:56.559Z,13.57
2018-06-16T07:27:25.871Z,14.33
2018-06-16T07:29:56.095Z,13.93
2018-06-16T07:32:28.609Z,14.07
2018-06-16T07:35:10.446Z,13.00
2018-06-16T07:37:39.760Z,12.40
2018-06-16T07:40:10.201Z,13.40
2018-06-16T07:42:39.478Z,12.87
2018-06-16T07:45:12.222Z,13.50
2018-06-16T07:47:44.076Z,13.13
2018-06-16T07:50:13.375Z,13.33
2018-06-16T07:52:42.659Z,13.00
2018-06-16T07:55:15.862Z,11.80
2018-06-16T07:57:51.848Z,12.13
2018-06-16T08:00:21.298Z,13.27
2018-06-16T08:02:51.106Z,12.47
2018-06-16T08:05:20.986Z,12.87
2018-06-16T08:07:49.922Z,12.70
2018-06-16T08:10:19.289Z,12.87
2018-06-16T08:12:48.636Z,12.40
2018-06-16T08:15:19.946Z,12.97
2018-06-16T08:17:49.411Z,11.80
2018-06-16T08:20:18.807Z,12.00
2018-06-16T08:22:48.396Z,11.47
2018-06-16T08:25:17.717Z,11.10
2018-06-16T08:27:47.601Z,11.90
2018-06-16T08:30:30.177Z,11.37
2018-06-16T08:33:04.172Z,11.30
2018-06-16T08:35:37.392Z,12.10
2018-06-16T08:38:06.918Z,10.73
2018-06-16T08:40:36.323Z,10.13
2018-06-16T08:43:11.208Z,12.30
2018-06-16T08:45:40.587Z,9.73
2018-06-16T08:48:12.390Z,9.10
2018-06-16T08:50:54.330Z,9.53
2018-06-16T08:53:23.840Z,10.07
2018-06-16T08:55:53.170Z,10.50
2018-06-16T08:58:22.551Z,9.70
2018-06-16T09:00:52.056Z,9.90
2018-06-16T09:03:21.802Z,10.17
2018-06-16T09:05:52.694Z,9.50
2018-06-16T09:08:27.701Z,9.60
2018-06-16T09:11:13.054Z,10.00
2018-06-16T09:13:49.956Z,8.63
2018-06-16T09:16:26.927Z,8.33
2018-06-16T09:18:56.287Z,8.90
2018-06-16T09:21:26.001Z,8.63
2018-06-16T09:23:55.406Z,8.80
2018-06-16T09:26:25.154Z,8.63
2018-06-16T09:28:54.500Z,8.03
2018-06-16T09:31:23.896Z,8.43
2018-06-16T09:33:54.242Z,9.20
2018-06-16T09:36:23.837Z,8.40
2018-06-16T09:38:57.305Z,8.80
2018-06-16T09:41:26.926Z,8.70
2018-06-16T09:43:56.378Z,9.13
2018-06-16T09:46:25.772Z,8.40
2018-06-16T09:48:56.362Z,8.27
2018-06-16T09:51:25.916Z,8.07
2018-06-16T09:53:57.098Z,7.83
2018-06-16T09:56:26.794Z,8.17
2018-06-16T09:58:56.153Z,7.40
2018-06-16T10:01:25.556Z,7.47
2018-06-16T10:03:55.487Z,7.40
2018-06-16T10:06:25.014Z,7.60
2018-06-16T10:08:54.438Z,6.50
2018-06-16T10:11:23.782Z,7.90
2018-06-16T10:13:53.219Z,7.40
2018-06-16T10:16:22.636Z,7.60
2018-06-16T10:18:52.020Z,6.67
2018-06-16T10:21:22.493Z,6.90
2018-06-16T10:23:51.885Z,7.47
2018-06-16T10:26:21.561Z,7.43
2018-06-16T10:28:51.065Z,9.77
2018-06-16T10:31:20.668Z,7.80
2018-06-16T10:33:49.988Z,6.97
2018-06-16T10:36:19.758Z,6.63
2018-06-16T10:38:49.180Z,8.67
2018-06-16T10:41:19.151Z,7.03
2018-06-16T10:43:48.601Z,7.10
2018-06-16T10:46:18.076Z,6.87
2018-06-16T10:48:50.997Z,7.10
2018-06-16T10:51:20.262Z,7.13
2018-06-16T10:53:49.754Z,7.37
2018-06-16T10:56:19.973Z,6.63
2018-06-16T10:59:02.837Z,7.43
2018-06-16T11:04:38.052Z,6.30
2018-06-16T11:07:34.649Z,7.20
2018-06-16T11:10:05.664Z,6.90
2018-06-16T11:12:53.222Z,6.40
2018-06-16T11:15:23.551Z,6.40
2018-06-16T11:17:53.183Z,6.00
2018-06-16T11:20:22.939Z,5.83
2018-06-16T11:22:53.800Z,6.47
2018-06-16T11:25:24.302Z,6.17
2018-06-16T11:27:53.964Z,6.07
2018-06-16T11:30:23.416Z,5.50
2018-06-16T11:32:52.856Z,5.90
2018-06-16T11:35:22.332Z,6.13
2018-06-16T11:37:57.127Z,5.90
2018-06-16T11:40:26.451Z,6.33
2018-06-16T11:42:56.101Z,7.13
2018-06-16T11:45:25.502Z,5.80
2018-06-16T11:47:54.953Z,5.87
2018-06-16T11:50:24.318Z,5.30
2018-06-16T11:52:53.905Z,5.27
2018-06-16T11:55:23.284Z,5.53
2018-06-16T11:57:52.689Z,6.30
2018-06-16T12:00:22.001Z,5.80
2018-06-16T12:03:07.998Z,5.87
2018-06-16T12:05:37.474Z,5.93
2018-06-16T12:08:06.899Z,5.73
2018-06-16T12:10:36.337Z,4.97
2018-06-16T12:13:05.701Z,5.73
2018-06-16T12:15:34.993Z,5.70
2018-06-16T12:18:04.679Z,5.47
2018-06-16T12:20:34.098Z,5.10
2018-06-16T12:23:03.730Z,4.97
2018-06-16T12:25:33.272Z,5.60
2018-06-16T12:28:02.858Z,5.97
2018-06-16T12:30:32.254Z,5.47
2018-06-16T12:33:05.435Z,5.57
2018-06-16T12:35:34.829Z,5.90
2018-06-16T12:38:04.388Z,6.20
2018-06-16T12:40:33.733Z,5.33
2018-06-16T12:43:03.149Z,5.17
2018-06-16T12:45:32.466Z,5.33
2018-06-16T12:48:01.839Z,5.80
2018-06-16T12:50:31.249Z,5.87
2018-06-16T12:53:00.616Z,6.20
2018-06-16T12:55:29.957Z,5.40
2018-06-16T12:58:07.219Z,6.37
2018-06-16T13:00:41.724Z,7.20
2018-06-16T13:03:11.120Z,6.40
2018-06-16T13:05:40.470Z,6.80
2018-06-16T13:08:10.017Z,7.13
2018-06-16T13:10:39.471Z,8.47
2018-06-16T13:13:08.861Z,8.17
2018-06-16T13:15:38.275Z,7.50
2018-06-16T13:18:07.706Z,8.57
2018-06-16T13:20:37.175Z,8.33
2018-06-16T13:23:06.604Z,7.60
2018-06-16T13:25:36.043Z,7.07
2018-06-16T13:28:05.668Z,7.30
2018-06-16T13:30:35.151Z,6.90
2018-06-16T13:33:04.586Z,6.53
2018-06-16T13:35:33.959Z,6.17
2018-06-16T13:38:03.259Z,6.00
2018-06-16T13:40:32.735Z,5.80
2018-06-16T13:43:02.141Z,5.77
2018-06-16T13:45:31.577Z,6.00
2018-06-16T13:48:01.052Z,6.50
2018-06-16T13:50:30.406Z,6.23
2018-06-16T13:53:00.253Z,5.57
2018-06-16T13:55:29.783Z,5.70
2018-06-16T13:57:59.225Z,6.40
2018-06-16T14:00:28.618Z,5.93
2018-06-16T14:02:58.121Z,6.97
2018-06-16T14:05:27.456Z,7.63
2018-06-16T14:07:56.868Z,6.13
2018-06-16T14:10:26.307Z,6.10
2018-06-16T14:12:55.784Z,6.43
2018-06-16T14:15:25.289Z,6.30
2018-06-16T14:17:54.816Z,6.30
2018-06-16T14:20:24.249Z,6.43
2018-06-16T14:22:53.769Z,7.17
2018-06-16T14:25:23.426Z,8.30
2018-06-16T14:27:52.844Z,7.00
2018-06-16T14:30:22.310Z,7.20
2018-06-16T14:32:51.686Z,6.80
2018-06-16T14:35:21.064Z,6.60
2018-06-16T14:37:50.399Z,11.53
2018-06-16T14:40:19.797Z,7.77
2018-06-16T14:42:49.280Z,7.40
2018-06-16T14:45:18.797Z,7.73
2018-06-16T14:47:48.209Z,6.93
2018-06-16T14:50:17.623Z,7.37
2018-06-16T14:52:47.034Z,7.43
2018-06-16T14:55:16.754Z,6.70
2018-06-16T14:57:47.425Z,6.77
2018-06-16T15:00:16.615Z,6.60
2018-06-16T15:02:46.062Z,7.53
2018-06-16T15:05:15.467Z,7.20
2018-06-16T15:07:44.867Z,6.37
2018-06-16T15:10:14.514Z,6.40
2018-06-16T15:12:44.104Z,5.83
2018-06-16T15:15:13.638Z,6.80
2018-06-16T15:17:43.223Z,6.13
2018-06-16T15:20:12.743Z,5.70
2018-06-16T15:22:42.147Z,5.73
2018-06-16T15:25:11.790Z,5.90
2018-06-16T15:27:41.335Z,6.80
2018-06-16T15:30:10.898Z,5.20
2018-06-16T15:32:40.460Z,6.07
2018-06-16T15:35:09.802Z,6.87
2018-06-16T15:37:39.492Z,5.40
2018-06-16T15:40:08.826Z,5.50
2018-06-16T15:42:38.232Z,5.27
2018-06-16T15:45:08.590Z,5.73
2018-06-16T15:47:38.121Z,5.63
2018-06-16T15:50:07.458Z,5.23
2018-06-16T15:52:36.963Z,5.63
2018-06-16T15:55:06.443Z,4.77
2018-06-16T15:57:35.867Z,5.17
2018-06-16T16:00:05.674Z,6.40
2018-06-16T16:02:35.302Z,5.33
2018-06-16T16:05:04.753Z,6.30
2018-06-16T16:07:34.179Z,9.00
2018-06-16T16:10:03.710Z,8.30
2018-06-16T16:12:33.052Z,5.33
2018-06-16T16:15:02.564Z,5.70
2018-06-16T16:17:31.904Z,5.53
2018-06-16T16:20:01.408Z,5.43
2018-06-16T16:22:30.964Z,6.17
2018-06-16T16:25:00.825Z,7.87
2018-06-16T16:27:30.152Z,6.67
2018-06-16T16:29:59.814Z,7.60
2018-06-16T16:32:29.175Z,5.93
2018-06-16T16:34:58.603Z,5.37
2018-06-16T16:37:28.056Z,12.37
2018-06-16T16:39:57.505Z,6.70
2018-06-16T16:42:27.162Z,8.40
2018-06-16T16:44:56.814Z,7.90
2018-06-16T16:47:26.292Z,7.00
2018-06-16T16:49:55.886Z,6.07
2018-06-16T16:52:25.546Z,12.03
2018-06-16T16:54:55.080Z,6.73
2018-06-16T16:57:24.771Z,6.47
2018-06-16T16:59:54.237Z,6.30
2018-06-16T17:02:23.805Z,6.07
2018-06-16T17:04:53.654Z,9.70
2018-06-16T17:07:23.125Z,39.70
2018-06-16T17:09:52.800Z,18.73
2018-06-16T17:12:21.980Z,7.33
2018-06-16T17:14:51.333Z,13.03
2018-06-16T17:17:21.031Z,8.63
2018-06-16T17:19:50.603Z,18.43
2018-06-16T17:22:20.202Z,10.23
2018-06-16T17:24:49.803Z,6.57
2018-06-16T17:27:19.327Z,8.20
2018-06-16T17:29:48.842Z,8.53
2018-06-16T17:32:18.487Z,8.30
2018-06-16T17:34:47.932Z,10.33
2018-06-16T17:37:17.545Z,8.50
2018-06-16T17:39:47.277Z,7.73
2018-06-16T17:42:17.031Z,8.63
2018-06-16T17:44:46.509Z,7.80
2018-06-16T17:47:15.915Z,9.73
2018-06-16T17:49:45.458Z,9.07
2018-06-16T17:52:15.013Z,11.70
2018-06-16T17:54:44.417Z,14.00
2018-06-16T17:57:17.192Z,21.00
2018-06-16T17:59:46.864Z,19.53
2018-06-16T18:02:16.355Z,10.97
2018-06-16T18:04:47.030Z,10.90
2018-06-16T18:07:16.457Z,13.40
2018-06-16T18:09:46.109Z,10.50
2018-06-16T18:12:15.806Z,11.33
2018-06-16T18:14:45.254Z,25.93
2018-06-16T18:17:14.769Z,35.43
2018-06-16T18:19:44.350Z,22.07
2018-06-16T18:22:13.818Z,9.87
2018-06-16T18:24:43.395Z,15.80
2018-06-16T18:27:13.005Z,17.97
2018-06-16T18:29:43.955Z,16.77
2018-06-16T18:32:13.357Z,13.60
2018-06-16T18:34:43.052Z,14.90
2018-06-16T18:37:12.770Z,40.13
2018-06-16T18:39:42.410Z,32.53
2018-06-16T18:42:12.550Z,16.00
2018-06-16T18:44:42.114Z,18.67
2018-06-16T18:47:11.667Z,13.43
2018-06-16T18:49:41.047Z,15.70
2018-06-16T18:52:10.870Z,18.03
2018-06-16T18:54:40.419Z,15.70
2018-06-16T18:57:10.009Z,12.40
2018-06-16T18:59:39.561Z,12.63
2018-06-16T19:02:08.972Z,14.40
2018-06-16T19:04:38.470Z,14.70
2018-06-16T19:07:08.076Z,13.67
2018-06-16T19:09:37.687Z,13.43
2018-06-16T19:12:07.594Z,14.53
2018-06-16T19:14:37.040Z,15.47
2018-06-16T19:17:06.876Z,19.07
2018-06-16T19:19:36.535Z,18.80
2018-06-16T19:22:06.286Z,18.97
2018-06-16T19:24:35.768Z,35.27
2018-06-16T19:27:05.759Z,24.55
2018-06-16T19:29:35.235Z,23.80
2018-06-16T19:32:05.905Z,30.05
2018-06-16T19:34:35.510Z,30.83
2018-06-16T19:37:05.570Z,22.77
2018-06-16T19:39:35.113Z,22.60
2018-06-16T19:42:05.778Z,24.70
2018-06-16T19:44:35.350Z,28.73
2018-06-16T19:47:05.440Z,28.53
2018-06-16T19:49:34.772Z,30.73
2018-06-16T19:52:04.215Z,33.47
2018-06-16T19:54:33.550Z,30.53
2018-06-16T19:57:03.180Z,21.77
2018-06-16T19:59:32.763Z,30.90
2018-06-16T20:02:02.829Z,21.30
2018-06-16T20:04:32.459Z,21.67
2018-06-16T20:07:01.955Z,25.13
2018-06-16T20:09:31.361Z,25.80
2018-06-16T20:12:00.763Z,26.00
2018-06-16T20:14:30.242Z,31.57
2018-06-16T20:16:59.684Z,59.83
2018-06-16T20:19:29.291Z,39.80
2018-06-16T20:21:58.864Z,28.80
2018-06-16T20:24:28.509Z,32.90
2018-06-16T20:26:58.030Z,39.83
2018-06-16T20:29:27.576Z,34.67
2018-06-16T20:31:57.077Z,35.30
2018-06-16T20:34:26.828Z,40.37
2018-06-16T20:36:56.222Z,43.10
2018-06-16T20:39:25.680Z,33.13
2018-06-16T20:41:55.282Z,30.00
2018-06-16T20:44:24.800Z,24.83
2018-06-16T20:46:54.323Z,20.63
2018-06-16T20:49:23.785Z,17.43
2018-06-16T20:51:53.307Z,17.80
2018-06-16T20:54:26.130Z,17.37
2018-06-16T20:56:55.618Z,17.50
2018-06-16T20:59:26.112Z,16.67
2018-06-16T21:02:01.578Z,16.60
2018-06-16T21:04:31.088Z,16.30
2018-06-16T21:07:17.002Z,21.13
2018-06-16T21:09:46.740Z,18.00
2018-06-16T21:12:16.231Z,20.10
2018-06-16T21:14:46.584Z,25.27
2018-06-16T21:17:15.992Z,19.13
2018-06-16T21:19:45.335Z,17.50
2018-06-16T21:22:15.206Z,19.23
2018-06-16T21:24:44.793Z,18.10
2018-06-16T21:27:14.396Z,16.93
2018-06-16T21:29:43.659Z,17.23
2018-06-16T21:32:13.029Z,17.30
2018-06-16T21:34:42.363Z,17.23
2018-06-16T21:37:11.629Z,17.43
2018-06-16T21:39:44.897Z,17.67
2018-06-16T21:42:14.412Z,17.37
2018-06-16T21:44:43.789Z,17.73
2018-06-16T21:47:13.153Z,17.33
2018-06-16T21:49:42.670Z,17.53
2018-06-16T21:52:12.031Z,20.07
2018-06-16T21:54:41.412Z,17.97
2018-06-16T21:57:10.758Z,18.83
2018-06-16T21:59:40.390Z,17.83
2018-06-16T22:02:12.001Z,22.70
2018-06-16T22:04:41.636Z,18.63
2018-06-16T22:07:11.102Z,19.10
2018-06-16T22:09:40.645Z,18.57
2018-06-16T22:12:10.201Z,21.53
2018-06-16T22:14:39.625Z,21.00
2018-06-16T22:17:08.979Z,19.10
2018-06-16T22:19:38.347Z,19.60
2018-06-16T22:22:07.937Z,18.90
2018-06-16T22:24:37.336Z,19.23
2018-06-16T22:27:06.851Z,18.33
2018-06-16T22:29:36.190Z,17.60
2018-06-16T22:32:06.308Z,17.77
2018-06-16T22:34:35.741Z,18.43
2018-06-16T22:37:05.145Z,19.80
2018-06-16T22:39:34.492Z,21.33
2018-06-16T22:42:03.940Z,21.97
2018-06-16T22:44:33.480Z,21.00
2018-06-16T22:47:02.890Z,21.20
2018-06-16T22:49:32.434Z,21.07
2018-06-16T22:52:01.835Z,22.73
2018-06-16T22:54:31.338Z,20.20
2018-06-16T22:57:00.770Z,20.70
2018-06-16T22:59:30.152Z,21.87
2018-06-16T23:01:59.576Z,21.80
2018-06-16T23:04:29.173Z,20.50
2018-06-16T23:06:58.540Z,19.33
2018-06-16T23:09:28.003Z,20.90
2018-06-16T23:11:57.447Z,21.10
2018-06-16T23:14:27.059Z,21.77
2018-06-16T23:16:56.533Z,21.70
2018-06-16T23:19:26.220Z,20.90
2018-06-16T23:21:55.753Z,21.70
2018-06-16T23:24:25.141Z,21.17
2018-06-16T23:26:54.641Z,20.43
2018-06-16T23:29:24.109Z,20.93
2018-06-16T23:31:53.456Z,21.87
2018-06-16T23:34:23.736Z,21.67
2018-06-16T23:37:12.544Z,20.97
2018-06-16T23:39:42.629Z,19.60
2018-06-16T23:42:16.164Z,24.00
2018-06-16T23:44:46.545Z,22.23
2018-06-16T23:47:27.546Z,23.67
2018-06-16T23:49:59.560Z,22.63
2018-06-16T23:52:32.681Z,20.20
2018-06-16T23:55:04.685Z,20.33
2018-06-16T23:57:34.740Z,22.30
